createdAt,value
2024-05-09T00:00:45.886Z,11.15
2024-05-09T00:03:13.443Z,11.04
2024-05-09T00:05:44.760Z,11.03
2024-05-09T00:08:12.606Z,11.25
2024-05-09T00:10:41.234Z,11.45
2024-05-09T00:13:10.021Z,11.47
2024-05-09T00:15:38.035Z,11.41
2024-05-09T00:18:06.810Z,11.51
2024-05-09T00:20:39.028Z,11.49
2024-05-09T00:23:13.580Z,11.55
2024-05-09T00:25:43.254Z,11.55
2024-05-09T00:28:11.965Z,11.69
2024-05-09T00:30:39.420Z,11.72
2024-05-09T00:33:08.271Z,11.72
2024-05-09T00:35:37.238Z,11.62
2024-05-09T00:38:05.104Z,11.68
2024-05-09T00:40:41.861Z,11.63
2024-05-09T00:43:12.086Z,11.78
2024-05-09T00:45:40.274Z,11.85
2024-05-09T00:48:09.357Z,11.92
2024-05-09T00:50:40.594Z,11.96
2024-05-09T00:53:11.988Z,11.83
2024-05-09T00:55:40.182Z,11.92
2024-05-09T00:58:09.149Z,11.89
2024-05-09T01:00:40.002Z,11.95
2024-05-09T01:03:13.526Z,12.06
2024-05-09T01:05:42.574Z,11.94
2024-05-09T01:08:11.067Z,11.58
2024-05-09T01:10:39.504Z,11.63
2024-05-09T01:13:08.027Z,11.61
2024-05-09T01:15:36.105Z,11.75
2024-05-09T01:18:12.667Z,11.72
2024-05-09T01:20:43.936Z,11.64
2024-05-09T01:23:14.546Z,11.75
2024-05-09T01:25:43.980Z,11.65
2024-05-09T01:28:11.495Z,11.39
2024-05-09T01:30:38.948Z,11.28
2024-05-09T01:33:09.081Z,11.44
2024-05-09T01:35:38.959Z,11.37
2024-05-09T01:38:07.467Z,11.27
2024-05-09T01:40:38.714Z,11.28
2024-05-09T01:43:09.226Z,11.26
2024-05-09T01:45:37.823Z,11.33
2024-05-09T01:48:05.793Z,11.05
2024-05-09T01:50:38.351Z,11.05
2024-05-09T01:53:09.819Z,10.93
2024-05-09T01:55:37.530Z,11.17
2024-05-09T01:58:05.095Z,11.05
2024-05-09T02:00:39.154Z,11.02
2024-05-09T02:03:13.345Z,10.76
2024-05-09T02:05:43.790Z,10.71
2024-05-09T02:08:20.008Z,10.84
2024-05-09T02:10:48.392Z,10.48
2024-05-09T02:13:16.524Z,10.38
2024-05-09T02:15:44.252Z,10.14
2024-05-09T02:18:12.017Z,10.07
2024-05-09T02:20:44.047Z,9.70
2024-05-09T02:23:12.063Z,9.64
2024-05-09T02:25:41.339Z,9.49
2024-05-09T02:28:08.636Z,9.40
2024-05-09T02:30:40.371Z,9.51
2024-05-09T02:33:13.988Z,9.60
2024-05-09T02:35:42.777Z,9.73
2024-05-09T02:38:10.968Z,9.46
2024-05-09T02:40:39.767Z,9.45
2024-05-09T02:43:08.558Z,9.63
2024-05-09T02:45:37.194Z,9.62
2024-05-09T02:48:04.995Z,9.36
2024-05-09T02:50:37.949Z,9.06
2024-05-09T02:53:13.159Z,9.12
2024-05-09T02:55:41.376Z,9.12
2024-05-09T02:58:09.172Z,8.95
2024-05-09T03:00:40.291Z,8.93
2024-05-09T03:03:12.494Z,8.98
2024-05-09T03:05:42.578Z,8.98
2024-05-09T03:08:10.160Z,8.97
2024-05-09T03:10:39.076Z,9.02
2024-05-09T03:13:15.190Z,9.04
2024-05-09T03:15:44.214Z,8.92
2024-05-09T03:18:12.520Z,8.83
2024-05-09T03:20:40.545Z,8.81
2024-05-09T03:23:09.623Z,8.52
2024-05-09T03:25:38.436Z,8.59
2024-05-09T03:28:06.167Z,8.53
2024-05-09T03:30:40.869Z,8.47
2024-05-09T03:33:18.817Z,8.35
2024-05-09T03:35:48.136Z,8.41
2024-05-09T03:38:15.927Z,8.52
2024-05-09T03:40:47.808Z,8.60
2024-05-09T03:43:15.489Z,8.72
2024-05-09T03:45:43.629Z,8.49
2024-05-09T03:48:11.245Z,8.31
2024-05-09T03:50:38.982Z,8.35
2024-05-09T03:53:07.194Z,8.42
2024-05-09T03:55:34.512Z,8.18
2024-05-09T03:58:01.855Z,8.42
2024-05-09T04:00:36.883Z,8.52
2024-05-09T04:03:09.014Z,8.71
2024-05-09T04:05:40.585Z,8.70
2024-05-09T04:08:09.238Z,8.81
2024-05-09T04:10:36.773Z,8.90
2024-05-09T04:13:04.557Z,9.00
2024-05-09T04:15:32.456Z,8.92
2024-05-09T04:18:00.850Z,8.86
2024-05-09T04:20:37.575Z,8.95
2024-05-09T04:23:08.925Z,8.94
2024-05-09T04:25:36.828Z,9.09
2024-05-09T04:28:04.464Z,9.12
2024-05-09T04:30:37.997Z,9.27
2024-05-09T04:33:10.458Z,9.39
2024-05-09T04:35:41.919Z,9.41
2024-05-09T04:38:09.722Z,9.61
2024-05-09T04:40:37.898Z,9.78
2024-05-09T04:43:06.971Z,9.95
2024-05-09T04:45:35.193Z,10.01
2024-05-09T04:48:03.307Z,9.93
2024-05-09T04:50:36.816Z,10.17
2024-05-09T04:53:10.878Z,10.48
2024-05-09T04:55:40.321Z,10.80
2024-05-09T04:58:09.425Z,11.00
2024-05-09T05:00:38.903Z,11.27
2024-05-09T05:03:10.214Z,11.49
2024-05-09T05:05:43.494Z,11.44
2024-05-09T05:08:16.621Z,11.70
2024-05-09T05:10:45.288Z,11.77
2024-05-09T05:13:18.106Z,11.97
2024-05-09T05:15:47.267Z,12.34
2024-05-09T05:18:18.283Z,12.53
2024-05-09T05:20:46.249Z,12.54
2024-05-09T05:23:15.604Z,12.58
2024-05-09T05:25:43.750Z,12.82
2024-05-09T05:28:11.389Z,13.24
2024-05-09T05:30:42.429Z,13.66
2024-05-09T05:33:18.781Z,14.24
2024-05-09T05:35:46.662Z,14.68
2024-05-09T05:38:14.111Z,15.73
2024-05-09T05:40:41.575Z,16.46
2024-05-09T05:43:17.489Z,16.77
2024-05-09T05:45:45.238Z,18.17
2024-05-09T05:48:14.074Z,18.84
2024-05-09T05:50:41.906Z,19.32
2024-05-09T05:53:10.524Z,20.09
2024-05-09T05:55:39.060Z,20.63
2024-05-09T05:58:10.537Z,18.81
2024-05-09T06:00:39.944Z,19.60
2024-05-09T06:03:09.585Z,20.46
2024-05-09T06:05:40.242Z,20.66
2024-05-09T06:08:15.827Z,21.67
2024-05-09T06:10:43.291Z,21.89
2024-05-09T06:13:12.165Z,22.26
2024-05-09T06:15:39.964Z,23.17
2024-05-09T06:18:15.314Z,23.72
2024-05-09T06:20:43.975Z,24.03
2024-05-09T06:23:12.251Z,22.40
2024-05-09T06:25:40.046Z,23.65
2024-05-09T06:28:07.443Z,24.30
2024-05-09T06:30:40.318Z,23.92
2024-05-09T06:33:11.774Z,22.04
2024-05-09T06:35:41.221Z,22.02
2024-05-09T06:38:09.541Z,22.89
2024-05-09T06:40:41.293Z,23.90
2024-05-09T06:43:18.844Z,24.70
2024-05-09T06:45:52.553Z,24.65
2024-05-09T06:48:20.649Z,24.49
2024-05-09T06:50:48.712Z,25.84
2024-05-09T06:53:17.211Z,26.08
2024-05-09T06:55:44.874Z,25.87
2024-05-09T06:58:12.302Z,26.38
2024-05-09T07:00:41.479Z,25.33
2024-05-09T07:03:12.457Z,24.81
2024-05-09T07:05:41.419Z,24.30
2024-05-09T07:08:08.966Z,23.79
2024-05-09T07:10:37.090Z,24.14
2024-05-09T07:13:15.142Z,24.79
2024-05-09T07:15:43.206Z,24.90
2024-05-09T07:18:17.766Z,25.77
2024-05-09T07:20:47.187Z,24.19
2024-05-09T07:23:15.397Z,25.18
2024-05-09T07:25:43.014Z,26.58
2024-05-09T07:28:21.366Z,27.45
2024-05-09T07:30:48.806Z,28.42
2024-05-09T07:33:17.548Z,27.17
2024-05-09T07:35:45.390Z,26.80
2024-05-09T07:38:12.944Z,28.27
2024-05-09T07:40:41.567Z,29.08
2024-05-09T07:43:10.481Z,28.39
2024-05-09T07:45:52.520Z,28.39
2024-05-09T07:52:38.073Z,28.56
2024-05-09T07:53:47.801Z,28.14
2024-05-09T07:56:19.940Z,29.47
2024-05-09T07:58:51.128Z,29.79
2024-05-09T08:01:19.162Z,30.72
2024-05-09T08:03:46.890Z,31.37
2024-05-09T08:06:14.581Z,28.15
2024-05-09T08:08:42.006Z,26.80
2024-05-09T08:11:09.409Z,27.92
2024-05-09T08:13:36.852Z,27.38
2024-05-09T08:16:04.404Z,28.67
2024-05-09T08:18:31.989Z,29.43
2024-05-09T08:20:59.667Z,28.85
2024-05-09T08:23:29.862Z,30.55
2024-05-09T08:25:57.218Z,29.86
2024-05-09T08:28:24.687Z,28.78
2024-05-09T08:30:52.258Z,27.50
2024-05-09T08:33:19.808Z,24.96
2024-05-09T08:35:47.280Z,25.61
2024-05-09T08:38:14.649Z,26.32
2024-05-09T08:40:42.621Z,28.11
2024-05-09T08:43:12.032Z,29.97
2024-05-09T08:45:43.617Z,30.19
2024-05-09T08:48:13.536Z,29.68
2024-05-09T08:50:41.754Z,29.55
2024-05-09T08:53:09.547Z,30.78
2024-05-09T08:55:40.791Z,31.45
2024-05-09T08:58:17.136Z,30.73
2024-05-09T09:00:46.021Z,28.30
2024-05-09T09:03:17.205Z,25.42
2024-05-09T09:05:53.379Z,25.63
2024-05-09T09:08:21.214Z,24.50
2024-05-09T09:10:49.197Z,27.04
2024-05-09T09:13:16.783Z,28.69
2024-05-09T09:15:51.073Z,29.47
2024-05-09T09:18:19.278Z,26.37
2024-05-09T09:20:46.836Z,26.22
2024-05-09T09:23:14.238Z,27.37
2024-05-09T09:25:41.585Z,29.13
2024-05-09T09:28:09.676Z,30.28
2024-05-09T09:30:43.770Z,30.58
2024-05-09T09:33:11.892Z,29.48
2024-05-09T09:35:40.806Z,25.90
2024-05-09T09:38:10.578Z,27.30
2024-05-09T09:40:46.650Z,27.55
2024-05-09T09:43:20.509Z,24.66
2024-05-09T09:45:51.294Z,25.30
2024-05-09T09:48:20.591Z,25.95
2024-05-09T09:50:48.471Z,26.55
2024-05-09T09:53:16.961Z,26.66
2024-05-09T09:55:44.371Z,26.31
2024-05-09T09:58:14.087Z,25.10
2024-05-09T10:00:42.515Z,25.69
2024-05-09T10:03:10.117Z,25.66
2024-05-09T10:05:39.346Z,25.85
2024-05-09T10:08:09.993Z,25.14
2024-05-09T10:10:37.473Z,24.95
2024-05-09T10:13:05.353Z,24.76
2024-05-09T10:15:51.633Z,24.82
2024-05-09T10:18:28.120Z,24.62
2024-05-09T10:20:57.879Z,24.98
2024-05-09T10:23:36.283Z,24.31
2024-05-09T10:26:06.725Z,23.69
2024-05-09T10:28:36.111Z,24.05
2024-05-09T10:31:15.246Z,24.15
2024-05-09T10:33:51.441Z,24.41
2024-05-09T10:36:21.405Z,23.97
2024-05-09T10:38:53.186Z,24.10
2024-05-09T10:41:21.538Z,24.22
2024-05-09T10:43:49.198Z,24.33
2024-05-09T10:46:18.794Z,24.24
2024-05-09T10:48:47.345Z,24.26
2024-05-09T10:51:14.908Z,24.54
2024-05-09T10:53:43.345Z,24.57
2024-05-09T10:56:14.284Z,24.54
2024-05-09T10:58:41.832Z,23.69
2024-05-09T11:01:10.275Z,23.64
2024-05-09T11:03:38.999Z,23.81
2024-05-09T11:06:07.168Z,23.97
2024-05-09T11:08:35.019Z,23.98
2024-05-09T11:11:07.186Z,23.60
2024-05-09T11:13:37.834Z,23.04
2024-05-09T11:16:06.778Z,23.66
2024-05-09T11:18:38.109Z,23.29
2024-05-09T11:21:12.855Z,22.29
2024-05-09T11:23:40.744Z,22.69
2024-05-09T11:26:08.082Z,22.84
2024-05-09T11:28:35.461Z,23.18
2024-05-09T11:31:10.604Z,23.20
2024-05-09T11:33:43.826Z,22.96
2024-05-09T11:36:11.430Z,23.03
2024-05-09T11:38:38.931Z,22.98
2024-05-09T11:41:09.587Z,22.97
2024-05-09T11:43:36.918Z,22.83
2024-05-09T11:46:04.589Z,22.48
2024-05-09T11:48:32.510Z,22.19
2024-05-09T11:51:00.126Z,22.38
2024-05-09T11:53:27.483Z,21.81
2024-05-09T11:55:54.887Z,21.72
2024-05-09T11:58:23.655Z,21.53
2024-05-09T12:00:51.230Z,21.65
2024-05-09T12:03:18.708Z,21.28
2024-05-09T12:05:46.353Z,21.05
2024-05-09T12:08:14.229Z,21.33
2024-05-09T12:10:41.906Z,21.47
2024-05-09T12:13:09.434Z,21.39
2024-05-09T12:15:38.364Z,21.38
2024-05-09T12:18:07.321Z,21.39
2024-05-09T12:20:39.679Z,21.49
2024-05-09T12:23:10.919Z,21.41
2024-05-09T12:25:41.043Z,20.94
2024-05-09T12:28:08.928Z,21.02
2024-05-09T12:30:40.820Z,20.93
2024-05-09T12:33:11.518Z,20.42
2024-05-09T12:35:44.352Z,20.69
2024-05-09T12:38:14.940Z,20.06
2024-05-09T12:40:42.856Z,20.17
2024-05-09T12:43:11.415Z,19.85
2024-05-09T12:45:39.902Z,19.98
2024-05-09T12:48:12.141Z,20.17
2024-05-09T12:50:40.575Z,20.35
2024-05-09T12:53:08.142Z,20.69
2024-05-09T12:55:44.488Z,20.77
2024-05-09T12:58:22.102Z,20.81
2024-05-09T13:00:51.016Z,20.83
2024-05-09T13:03:18.542Z,20.62
2024-05-09T13:05:46.233Z,20.33
2024-05-09T13:08:14.007Z,19.90
2024-05-09T13:10:41.497Z,19.82
2024-05-09T13:13:12.341Z,19.95
2024-05-09T13:15:40.235Z,20.18
2024-05-09T13:18:08.421Z,20.40
2024-05-09T13:20:37.147Z,20.45
2024-05-09T13:23:07.308Z,20.39
2024-05-09T13:25:36.135Z,20.19
2024-05-09T13:28:04.703Z,20.10
2024-05-09T13:30:39.470Z,20.07
2024-05-09T13:33:10.296Z,19.63
2024-05-09T13:35:38.715Z,19.73
2024-05-09T13:38:06.250Z,19.66
2024-05-09T13:40:35.983Z,19.47
2024-05-09T13:43:05.013Z,19.39
2024-05-09T13:45:33.016Z,19.44
2024-05-09T13:48:00.956Z,19.46
2024-05-09T13:50:34.273Z,19.05
2024-05-09T13:53:08.500Z,18.83
2024-05-09T13:55:40.057Z,18.91
2024-05-09T13:58:08.810Z,19.08
2024-05-09T14:00:45.022Z,19.21
2024-05-09T14:03:19.127Z,19.33
2024-05-09T14:05:48.051Z,19.37
2024-05-09T14:08:17.765Z,19.56
2024-05-09T14:10:47.153Z,19.46
2024-05-09T14:13:15.150Z,19.48
2024-05-09T14:15:42.735Z,19.53
2024-05-09T14:18:13.252Z,19.64
2024-05-09T14:20:42.343Z,19.62
2024-05-09T14:23:10.080Z,19.71
2024-05-09T14:25:41.994Z,19.62
2024-05-09T14:28:11.196Z,19.51
2024-05-09T14:30:39.633Z,19.75
2024-05-09T14:33:08.290Z,19.83
2024-05-09T14:35:40.173Z,19.86
2024-05-09T14:38:08.657Z,19.94
2024-05-09T14:40:41.926Z,19.83
2024-05-09T14:43:12.065Z,19.59
2024-05-09T14:45:39.938Z,19.59
2024-05-09T14:48:08.083Z,19.67
2024-05-09T14:50:38.848Z,19.52
2024-05-09T14:53:08.881Z,19.51
2024-05-09T14:55:41.166Z,19.60
2024-05-09T14:58:10.668Z,19.60
2024-05-09T15:00:44.648Z,19.56
2024-05-09T15:03:15.750Z,19.60
2024-05-09T15:05:43.774Z,19.60
2024-05-09T15:08:11.288Z,19.69
2024-05-09T15:10:39.083Z,19.68
2024-05-09T15:13:08.730Z,19.70
2024-05-09T15:15:37.604Z,19.70
2024-05-09T15:18:06.318Z,19.64
2024-05-09T15:20:36.602Z,19.60
2024-05-09T15:23:06.828Z,19.44
2024-05-09T15:25:35.173Z,19.20
2024-05-09T15:28:07.837Z,19.13
2024-05-09T15:30:36.003Z,19.28
2024-05-09T15:33:04.293Z,19.46
2024-05-09T15:35:32.285Z,19.49
2024-05-09T15:37:59.924Z,19.43
2024-05-09T15:40:36.081Z,19.41
2024-05-09T15:43:08.043Z,19.48
2024-05-09T15:45:36.291Z,19.42
2024-05-09T15:48:05.518Z,19.47
2024-05-09T15:50:38.678Z,19.46
2024-05-09T15:53:09.908Z,19.39
2024-05-09T15:55:38.034Z,19.37
2024-05-09T15:58:06.681Z,19.36
2024-05-09T16:00:39.200Z,19.37
2024-05-09T16:03:10.620Z,19.38
2024-05-09T16:05:38.837Z,19.30
2024-05-09T16:08:06.999Z,19.33
2024-05-09T16:10:35.349Z,19.36
2024-05-09T16:13:03.881Z,19.28
2024-05-09T16:15:31.953Z,19.21
2024-05-09T16:18:00.156Z,19.28
2024-05-09T16:20:35.218Z,19.36
2024-05-09T16:23:07.857Z,19.48
2024-05-09T16:25:35.430Z,19.45
2024-05-09T16:28:07.057Z,19.42
2024-05-09T16:30:37.207Z,19.36
2024-05-09T16:33:05.699Z,19.33
2024-05-09T16:35:37.715Z,19.34
2024-05-09T16:38:05.960Z,19.31
2024-05-09T16:40:38.559Z,19.27
2024-05-09T16:43:09.760Z,19.22
2024-05-09T16:45:39.402Z,19.17
2024-05-09T16:48:07.622Z,19.14
2024-05-09T16:50:35.995Z,19.17
2024-05-09T16:53:05.385Z,19.07
2024-05-09T16:55:33.482Z,19.06
2024-05-09T16:58:01.257Z,19.06
2024-05-09T17:00:37.839Z,19.00
2024-05-09T17:03:14.831Z,19.01
2024-05-09T17:05:44.073Z,18.97
2024-05-09T17:08:11.672Z,19.00
2024-05-09T17:10:39.167Z,18.97
2024-05-09T17:13:07.903Z,19.03
2024-05-09T17:15:37.162Z,18.98
2024-05-09T17:18:05.640Z,18.94
2024-05-09T17:20:36.155Z,18.89
2024-05-09T17:23:06.253Z,18.78
2024-05-09T17:25:34.336Z,18.82
2024-05-09T17:28:07.330Z,18.77
2024-05-09T17:30:38.018Z,18.72
2024-05-09T17:33:08.790Z,18.81
2024-05-09T17:35:37.438Z,18.71
2024-05-09T17:38:06.111Z,18.67
2024-05-09T17:40:36.443Z,18.64
2024-05-09T17:43:09.925Z,18.58
2024-05-09T17:45:40.200Z,18.49
2024-05-09T17:48:09.832Z,18.50
2024-05-09T17:50:38.276Z,18.46
2024-05-09T17:53:06.555Z,18.46
2024-05-09T17:55:34.315Z,18.33
2024-05-09T17:58:02.095Z,18.22
2024-05-09T18:00:37.532Z,18.23
2024-05-09T18:03:09.010Z,18.16
2024-05-09T18:05:37.402Z,18.14
2024-05-09T18:08:08.719Z,18.17
2024-05-09T18:10:41.395Z,18.12
2024-05-09T18:13:09.809Z,18.04
2024-05-09T18:15:37.648Z,17.99
2024-05-09T18:18:05.936Z,17.90
2024-05-09T18:20:41.698Z,17.90
2024-05-09T18:23:17.480Z,17.80
2024-05-09T18:25:46.401Z,17.80
2024-05-09T18:28:14.510Z,17.78
2024-05-09T18:30:42.138Z,17.76
2024-05-09T18:33:12.717Z,17.72
2024-05-09T18:35:42.591Z,17.60
2024-05-09T18:38:10.000Z,17.58
2024-05-09T18:40:42.678Z,17.42
2024-05-09T18:43:11.433Z,17.32
2024-05-09T18:45:39.216Z,17.27
2024-05-09T18:48:08.422Z,17.23
2024-05-09T18:50:39.983Z,17.19
2024-05-09T18:53:10.345Z,17.21
2024-05-09T18:55:38.526Z,17.06
2024-05-09T18:58:06.238Z,17.00
2024-05-09T19:00:37.253Z,16.90
2024-05-09T19:03:12.647Z,16.84
2024-05-09T19:05:43.064Z,16.80
2024-05-09T19:08:11.573Z,16.68
2024-05-09T19:10:39.951Z,16.63
2024-05-09T19:13:11.966Z,16.64
2024-05-09T19:15:41.855Z,16.57
2024-05-09T19:18:10.595Z,16.52
2024-05-09T19:20:38.919Z,16.34
2024-05-09T19:23:07.416Z,16.25
2024-05-09T19:25:35.508Z,16.31
2024-05-09T19:28:03.997Z,16.05
2024-05-09T19:30:38.652Z,15.93
2024-05-09T19:33:10.235Z,15.86
2024-05-09T19:35:38.597Z,15.74
2024-05-09T19:38:07.459Z,15.77
2024-05-09T19:40:35.647Z,15.82
2024-05-09T19:43:04.989Z,15.87
2024-05-09T19:45:34.269Z,15.79
2024-05-09T19:48:02.747Z,15.71
2024-05-09T19:50:37.926Z,15.68
2024-05-09T19:53:11.255Z,15.66
2024-05-09T19:55:39.204Z,15.57
2024-05-09T19:58:08.268Z,15.55
2024-05-09T20:00:37.884Z,15.65
2024-05-09T20:03:07.729Z,15.60
2024-05-09T20:05:36.016Z,15.43
2024-05-09T20:08:03.896Z,15.41
2024-05-09T20:10:33.468Z,15.30
2024-05-09T20:13:03.237Z,15.25
2024-05-09T20:15:31.401Z,15.24
2024-05-09T20:17:58.930Z,15.25
2024-05-09T20:20:33.595Z,15.21
2024-05-09T20:23:06.393Z,15.15
2024-05-09T20:25:34.113Z,15.04
2024-05-09T20:28:01.558Z,15.07
2024-05-09T20:30:32.587Z,14.95
2024-05-09T20:33:03.360Z,14.88
2024-05-09T20:35:32.798Z,14.95
2024-05-09T20:38:01.817Z,14.90
2024-05-09T20:40:34.201Z,14.87
2024-05-09T20:43:05.460Z,14.81
2024-05-09T20:45:33.508Z,14.78
2024-05-09T20:48:01.530Z,14.68
2024-05-09T20:50:36.975Z,14.58
2024-05-09T20:53:12.719Z,14.49
2024-05-09T20:55:41.707Z,14.41
2024-05-09T20:58:09.813Z,14.40
2024-05-09T21:00:41.143Z,14.38
2024-05-09T21:03:12.677Z,14.42
2024-05-09T21:05:41.255Z,14.44
2024-05-09T21:08:09.033Z,14.41
2024-05-09T21:10:37.617Z,14.33
2024-05-09T21:13:06.695Z,14.41
2024-05-09T21:15:35.316Z,14.47
2024-05-09T21:18:03.215Z,14.52
2024-05-09T21:20:33.361Z,14.48
2024-05-09T21:23:02.346Z,14.43
2024-05-09T21:25:30.585Z,14.35
2024-05-09T21:27:58.205Z,14.38
2024-05-09T21:30:32.667Z,14.35
2024-05-09T21:33:13.294Z,14.28
2024-05-09T21:35:42.619Z,14.25
2024-05-09T21:38:10.295Z,14.21
2024-05-09T21:40:38.477Z,14.18
2024-05-09T21:43:07.816Z,14.12
2024-05-09T21:45:35.793Z,14.09
2024-05-09T21:48:04.506Z,14.07
2024-05-09T21:50:39.086Z,14.03
2024-05-09T21:53:09.354Z,14.01
2024-05-09T21:55:36.779Z,13.93
2024-05-09T21:58:04.569Z,13.91
2024-05-09T22:00:36.683Z,13.87
2024-05-09T22:03:07.765Z,13.90
2024-05-09T22:05:36.155Z,13.90
2024-05-09T22:08:03.858Z,13.87
2024-05-09T22:10:34.839Z,13.87
2024-05-09T22:13:05.397Z,13.83
2024-05-09T22:15:36.462Z,13.82
2024-05-09T22:18:05.516Z,13.77
2024-05-09T22:20:37.868Z,13.73
2024-05-09T22:23:07.219Z,13.78
2024-05-09T22:25:34.956Z,13.77
2024-05-09T22:28:03.349Z,13.72
2024-05-09T22:30:36.863Z,13.55
2024-05-09T22:33:11.482Z,13.43
2024-05-09T22:35:40.089Z,13.37
2024-05-09T22:38:07.697Z,13.14
2024-05-09T22:40:45.580Z,13.28
2024-05-09T22:43:24.515Z,13.41
2024-05-09T22:45:54.929Z,13.47
2024-05-09T22:48:23.931Z,13.49
2024-05-09T22:50:51.759Z,13.48
2024-05-09T22:53:19.310Z,13.45
2024-05-09T22:55:46.597Z,13.43
2024-05-09T22:58:13.949Z,13.40
2024-05-09T23:00:41.447Z,13.37
2024-05-09T23:03:08.946Z,13.40
2024-05-09T23:05:36.509Z,13.39
2024-05-09T23:08:04.073Z,13.38
2024-05-09T23:10:36.032Z,13.24
2024-05-09T23:13:06.027Z,13.22
2024-05-09T23:15:33.496Z,13.12
2024-05-09T23:18:01.232Z,12.96
2024-05-09T23:20:36.509Z,12.95
2024-05-09T23:23:11.242Z,13.06
2024-05-09T23:25:42.929Z,12.80
2024-05-09T23:28:10.883Z,12.69
2024-05-09T23:30:40.546Z,12.64
2024-05-09T23:33:11.951Z,12.69
2024-05-09T23:35:41.032Z,12.81
2024-05-09T23:38:08.386Z,13.00
2024-05-09T23:40:39.612Z,13.01
2024-05-09T23:43:09.740Z,12.98
2024-05-09T23:45:37.556Z,12.86
2024-05-09T23:48:06.056Z,12.95
2024-05-09T23:50:37.027Z,13.04
2024-05-09T23:53:08.060Z,13.14
2024-05-09T23:55:37.725Z,13.13
2024-05-09T23:58:05.759Z,13.22
